sensor_id;sensor_type;location;lat;lon;timestamp;pressure;altitude;pressure_sealevel;temperature;humidity
57900;BME280;60605;53.716;19.940;2022-11-20T00:04:47;100070.11;;;-2.42;98.80
57900;BME280;60605;53.716;19.940;2022-11-20T00:09:51;100069.94;;;-2.42;97.63
57900;BME280;60605;53.716;19.940;2022-11-20T00:14:54;100073.64;;;-2.42;97.48
57900;BME280;60605;53.716;19.940;2022-11-20T00:19:57;100072.83;;;-2.43;97.15
57900;BME280;60605;53.716;19.940;2022-11-20T00:25:00;100077.06;;;-2.44;97.10
57900;BME280;60605;53.716;19.940;2022-11-20T00:30:05;100078.92;;;-2.47;96.93
57900;BME280;60605;53.716;19.940;2022-11-20T00:35:12;100075.42;;;-2.50;96.58
57900;BME280;60605;53.716;19.940;2022-11-20T00:40:16;100073.22;;;-2.51;96.84
57900;BME280;60605;53.716;19.940;2022-11-20T00:45:19;100074.17;;;-2.53;96.77
57900;BME280;60605;53.716;19.940;2022-11-20T00:50:23;100073.69;;;-2.53;96.64
57900;BME280;60605;53.716;19.940;2022-11-20T00:55:26;100071.06;;;-2.54;96.59
57900;BME280;60605;53.716;19.940;2022-11-20T01:00:29;100069.20;;;-2.55;96.69
57900;BME280;60605;53.716;19.940;2022-11-20T01:05:34;100072.37;;;-2.55;96.75
57900;BME280;60605;53.716;19.940;2022-11-20T01:10:38;100065.75;;;-2.56;96.75
57900;BME280;60605;53.716;19.940;2022-11-20T01:15:42;100072.17;;;-2.55;96.80
57900;BME280;60605;53.716;19.940;2022-11-20T01:20:47;100070.52;;;-2.53;96.89
57900;BME280;60605;53.716;19.940;2022-11-20T01:25:50;100072.52;;;-2.51;96.91
57900;BME280;60605;53.716;19.940;2022-11-20T01:30:54;100066.12;;;-2.49;96.90
57900;BME280;60605;53.716;19.940;2022-11-20T01:36:04;100063.67;;;-2.46;97.05
57900;BME280;60605;53.716;19.940;2022-11-20T01:41:09;100066.44;;;-2.42;96.89
57900;BME280;60605;53.716;19.940;2022-11-20T01:46:19;100066.33;;;-2.40;96.78
57900;BME280;60605;53.716;19.940;2022-11-20T01:51:31;100064.48;;;-2.38;96.65
57900;BME280;60605;53.716;19.940;2022-11-20T01:56:38;100066.67;;;-2.36;96.66
57900;BME280;60605;53.716;19.940;2022-11-20T02:01:44;100065.36;;;-2.34;96.61
57900;BME280;60605;53.716;19.940;2022-11-20T02:06:57;100062.71;;;-2.34;96.47
57900;BME280;60605;53.716;19.940;2022-11-20T02:12:03;100060.27;;;-2.34;96.58
57900;BME280;60605;53.716;19.940;2022-11-20T02:17:06;100053.81;;;-2.34;96.51
57900;BME280;60605;53.716;19.940;2022-11-20T02:22:24;100046.29;;;-2.34;96.53
57900;BME280;60605;53.716;19.940;2022-11-20T02:27:31;100043.43;;;-2.33;96.54
57900;BME280;60605;53.716;19.940;2022-11-20T02:32:35;100040.92;;;-2.32;96.79
57900;BME280;60605;53.716;19.940;2022-11-20T02:37:39;100039.94;;;-2.29;96.96
57900;BME280;60605;53.716;19.940;2022-11-20T02:42:43;100039.32;;;-2.27;96.85
57900;BME280;60605;53.716;19.940;2022-11-20T02:47:46;100042.74;;;-2.26;96.88
57900;BME280;60605;53.716;19.940;2022-11-20T02:52:49;100035.36;;;-2.25;96.72
57900;BME280;60605;53.716;19.940;2022-11-20T02:57:53;100033.60;;;-2.25;96.74
57900;BME280;60605;53.716;19.940;2022-11-20T03:02:56;100035.55;;;-2.26;96.86
57900;BME280;60605;53.716;19.940;2022-11-20T03:08:00;100033.05;;;-2.25;97.11
57900;BME280;60605;53.716;19.940;2022-11-20T03:13:03;100028.56;;;-2.26;97.29
57900;BME280;60605;53.716;19.940;2022-11-20T03:18:06;100032.80;;;-2.27;97.50
57900;BME280;60605;53.716;19.940;2022-11-20T03:23:10;100031.55;;;-2.26;97.64
57900;BME280;60605;53.716;19.940;2022-11-20T03:28:13;100027.48;;;-2.25;97.74
57900;BME280;60605;53.716;19.940;2022-11-20T03:33:16;100020.84;;;-2.25;97.96
57900;BME280;60605;53.716;19.940;2022-11-20T03:38:19;100020.31;;;-2.25;98.03
57900;BME280;60605;53.716;19.940;2022-11-20T03:43:22;100014.88;;;-2.25;98.17
57900;BME280;60605;53.716;19.940;2022-11-20T03:48:26;100009.73;;;-2.24;98.12
57900;BME280;60605;53.716;19.940;2022-11-20T03:53:29;100007.64;;;-2.24;98.22
57900;BME280;60605;53.716;19.940;2022-11-20T03:58:33;100007.98;;;-2.24;98.34
57900;BME280;60605;53.716;19.940;2022-11-20T04:03:40;100006.73;;;-2.23;98.46
57900;BME280;60605;53.716;19.940;2022-11-20T04:08:44;100007.98;;;-2.24;98.60
57900;BME280;60605;53.716;19.940;2022-11-20T04:13:59;100008.89;;;-2.24;98.75
57900;BME280;60605;53.716;19.940;2022-11-20T04:19:05;100004.71;;;-2.25;98.88
57900;BME280;60605;53.716;19.940;2022-11-20T04:24:09;100002.63;;;-2.25;99.15
57900;BME280;60605;53.716;19.940;2022-11-20T04:29:13;99997.44;;;-2.26;99.26
57900;BME280;60605;53.716;19.940;2022-11-20T04:34:16;99997.40;;;-2.25;99.36
57900;BME280;60605;53.716;19.940;2022-11-20T04:39:19;99993.91;;;-2.26;99.41
57900;BME280;60605;53.716;19.940;2022-11-20T04:44:23;100001.05;;;-2.25;99.57
57900;BME280;60605;53.716;19.940;2022-11-20T04:49:26;99998.85;;;-2.23;99.77
57900;BME280;60605;53.716;19.940;2022-11-20T04:54:29;99997.09;;;-2.23;99.78
57900;BME280;60605;53.716;19.940;2022-11-20T04:59:32;99993.10;;;-2.23;99.82
57900;BME280;60605;53.716;19.940;2022-11-20T05:04:36;99987.56;;;-2.24;99.95
57900;BME280;60605;53.716;19.940;2022-11-20T05:09:39;99988.84;;;-2.25;100.00
57900;BME280;60605;53.716;19.940;2022-11-20T05:14:43;99988.89;;;-2.26;100.00
57900;BME280;60605;53.716;19.940;2022-11-20T05:19:46;99985.55;;;-2.26;100.00
57900;BME280;60605;53.716;19.940;2022-11-20T05:24:54;99984.36;;;-2.27;100.00
57900;BME280;60605;53.716;19.940;2022-11-20T05:29:58;99972.27;;;-2.27;100.00
57900;BME280;60605;53.716;19.940;2022-11-20T05:35:01;99962.09;;;-2.25;100.00
57900;BME280;60605;53.716;19.940;2022-11-20T05:40:05;99967.60;;;-2.24;100.00
57900;BME280;60605;53.716;19.940;2022-11-20T05:45:08;99973.48;;;-2.23;100.00
57900;BME280;60605;53.716;19.940;2022-11-20T05:50:13;99971.14;;;-2.21;100.00
57900;BME280;60605;53.716;19.940;2022-11-20T05:55:16;99968.44;;;-2.20;100.00
57900;BME280;60605;53.716;19.940;2022-11-20T06:00:19;99970.94;;;-2.18;100.00
57900;BME280;60605;53.716;19.940;2022-11-20T06:05:23;99965.88;;;-2.18;100.00
57900;BME280;60605;53.716;19.940;2022-11-20T06:10:26;99960.82;;;-2.18;100.00
57900;BME280;60605;53.716;19.940;2022-11-20T06:15:30;99959.38;;;-2.17;100.00
57900;BME280;60605;53.716;19.940;2022-11-20T06:20:33;99958.64;;;-2.17;99.99
57900;BME280;60605;53.716;19.940;2022-11-20T06:25:43;99953.16;;;-2.16;99.97
57900;BME280;60605;53.716;19.940;2022-11-20T06:30:47;99958.52;;;-2.14;99.95
57900;BME280;60605;53.716;19.940;2022-11-20T06:35:50;99950.20;;;-2.13;99.99
57900;BME280;60605;53.716;19.940;2022-11-20T06:41:03;99949.96;;;-2.11;100.00
57900;BME280;60605;53.716;19.940;2022-11-20T06:46:06;99953.39;;;-2.10;99.99
57900;BME280;60605;53.716;19.940;2022-11-20T06:51:09;99952.79;;;-2.09;99.99
57900;BME280;60605;53.716;19.940;2022-11-20T06:56:13;99950.04;;;-2.07;100.00
57900;BME280;60605;53.716;19.940;2022-11-20T07:01:16;99946.83;;;-2.05;100.00
57900;BME280;60605;53.716;19.940;2022-11-20T07:06:20;99944.05;;;-2.03;100.00
57900;BME280;60605;53.716;19.940;2022-11-20T07:11:24;99948.11;;;-2.00;100.00
57900;BME280;60605;53.716;19.940;2022-11-20T07:16:27;99941.77;;;-1.96;100.00
57900;BME280;60605;53.716;19.940;2022-11-20T07:21:31;99936.05;;;-1.90;100.00
57900;BME280;60605;53.716;19.940;2022-11-20T07:26:34;99936.95;;;-1.88;100.00
57900;BME280;60605;53.716;19.940;2022-11-20T07:31:37;99941.16;;;-1.85;100.00
57900;BME280;60605;53.716;19.940;2022-11-20T07:36:41;99941.98;;;-1.81;100.00
57900;BME280;60605;53.716;19.940;2022-11-20T07:41:44;99935.42;;;-1.79;100.00
57900;BME280;60605;53.716;19.940;2022-11-20T07:46:47;99932.41;;;-1.78;100.00
57900;BME280;60605;53.716;19.940;2022-11-20T07:51:51;99936.59;;;-1.75;100.00
57900;BME280;60605;53.716;19.940;2022-11-20T07:57:00;99928.29;;;-1.67;100.00
57900;BME280;60605;53.716;19.940;2022-11-20T08:02:04;99931.84;;;-1.59;100.00
57900;BME280;60605;53.716;19.940;2022-11-20T08:07:07;99931.81;;;-1.55;99.97
57900;BME280;60605;53.716;19.940;2022-11-20T08:12:20;99933.67;;;-1.48;99.91
57900;BME280;60605;53.716;19.940;2022-11-20T08:17:42;99935.61;;;-1.39;99.61
57900;BME280;60605;53.716;19.940;2022-11-20T08:23:07;99930.89;;;-1.33;98.85
57900;BME280;60605;53.716;19.940;2022-11-20T08:28:11;99927.84;;;-1.26;98.98
57900;BME280;60605;53.716;19.940;2022-11-20T08:33:22;99924.21;;;-1.11;98.87
57900;BME280;60605;53.716;19.940;2022-11-20T08:38:25;99916.55;;;-0.88;98.73
57900;BME280;60605;53.716;19.940;2022-11-20T08:43:29;99907.92;;;-0.73;97.87
57900;BME280;60605;53.716;19.940;2022-11-20T08:48:32;99895.54;;;-0.65;96.88
57900;BME280;60605;53.716;19.940;2022-11-20T08:53:36;99894.23;;;-0.53;96.46
57900;BME280;60605;53.716;19.940;2022-11-20T08:58:40;99896.55;;;-0.33;95.71
57900;BME280;60605;53.716;19.940;2022-11-20T09:04:04;99902.13;;;-0.08;95.45
57900;BME280;60605;53.716;19.940;2022-11-20T09:09:08;99896.80;;;0.29;92.23
57900;BME280;60605;53.716;19.940;2022-11-20T09:14:11;99894.77;;;0.36;91.84
57900;BME280;60605;53.716;19.940;2022-11-20T09:19:14;99893.77;;;0.35;91.40
57900;BME280;60605;53.716;19.940;2022-11-20T09:24:38;99886.79;;;0.80;91.12
57900;BME280;60605;53.716;19.940;2022-11-20T09:29:41;99882.63;;;1.15;88.12
57900;BME280;60605;53.716;19.940;2022-11-20T09:34:44;99884.25;;;1.27;87.41
57900;BME280;60605;53.716;19.940;2022-11-20T09:39:47;99884.06;;;1.43;86.61
57900;BME280;60605;53.716;19.940;2022-11-20T09:55:01;99873.37;;;2.62;82.50
57900;BME280;60605;53.716;19.940;2022-11-20T10:00:12;99877.92;;;2.24;82.26
57900;BME280;60605;53.716;19.940;2022-11-20T10:05:35;99873.40;;;1.90;83.34
57900;BME280;60605;53.716;19.940;2022-11-20T10:11:11;99868.21;;;1.66;83.80
57900;BME280;60605;53.716;19.940;2022-11-20T10:32:43;99852.45;;;1.01;85.44
57900;BME280;60605;53.716;19.940;2022-11-20T10:37:50;99851.52;;;0.89;86.47
57900;BME280;60605;53.716;19.940;2022-11-20T10:43:03;99852.40;;;0.82;86.81
57900;BME280;60605;53.716;19.940;2022-11-20T10:48:15;99849.30;;;0.86;87.39
57900;BME280;60605;53.716;19.940;2022-11-20T11:04:52;99843.14;;;0.44;88.19
57900;BME280;60605;53.716;19.940;2022-11-20T11:09:56;99847.02;;;0.28;89.03
57900;BME280;60605;53.716;19.940;2022-11-20T11:15:01;99848.88;;;0.18;89.60
57900;BME280;60605;53.716;19.940;2022-11-20T11:20:18;99843.16;;;0.09;90.07
57900;BME280;60605;53.716;19.940;2022-11-20T11:30:30;99843.56;;;-0.08;90.83
57900;BME280;60605;53.716;19.940;2022-11-20T11:35:47;99841.77;;;-0.13;91.46
57900;BME280;60605;53.716;19.940;2022-11-20T11:40:54;99836.05;;;-0.20;91.88
57900;BME280;60605;53.716;19.940;2022-11-20T11:46:00;99836.27;;;-0.26;92.27
57900;BME280;60605;53.716;19.940;2022-11-20T11:51:08;99830.70;;;-0.30;92.84
57900;BME280;60605;53.716;19.940;2022-11-20T11:56:13;99824.91;;;-0.33;93.20
57900;BME280;60605;53.716;19.940;2022-11-20T12:01:38;99818.77;;;-0.32;93.70
57900;BME280;60605;53.716;19.940;2022-11-20T12:06:50;99806.39;;;-0.28;93.92
57900;BME280;60605;53.716;19.940;2022-11-20T12:12:02;99804.80;;;-0.22;93.99
57900;BME280;60605;53.716;19.940;2022-11-20T12:17:11;99800.70;;;-0.16;93.90
57900;BME280;60605;53.716;19.940;2022-11-20T12:22:34;99801.65;;;-0.12;93.84
57900;BME280;60605;53.716;19.940;2022-11-20T12:27:57;99800.33;;;-0.02;94.25
57900;BME280;60605;53.716;19.940;2022-11-20T12:43:46;99778.77;;;0.11;93.93
57900;BME280;60605;53.716;19.940;2022-11-20T13:10:39;99760.42;;;-0.20;95.35
57900;BME280;60605;53.716;19.940;2022-11-20T13:20:51;99743.68;;;-0.30;95.69
57900;BME280;60605;53.716;19.940;2022-11-20T13:26:13;99737.12;;;-0.31;96.00
57900;BME280;60605;53.716;19.940;2022-11-20T13:31:29;99729.68;;;-0.33;96.25
57900;BME280;60605;53.716;19.940;2022-11-20T13:36:34;99730.16;;;-0.35;96.09
57900;BME280;60605;53.716;19.940;2022-11-20T13:41:40;99726.45;;;-0.37;96.29
57900;BME280;60605;53.716;19.940;2022-11-20T13:46:46;99729.27;;;-0.37;96.48
57900;BME280;60605;53.716;19.940;2022-11-20T13:51:54;99723.29;;;-0.37;96.69
57900;BME280;60605;53.716;19.940;2022-11-20T14:02:29;99713.84;;;-0.37;96.90
57900;BME280;60605;53.716;19.940;2022-11-20T14:07:40;99706.52;;;-0.41;97.17
57900;BME280;60605;53.716;19.940;2022-11-20T14:12:44;99703.85;;;-0.45;97.69
57900;BME280;60605;53.716;19.940;2022-11-20T14:17:47;99699.46;;;-0.48;98.22
57900;BME280;60605;53.716;19.940;2022-11-20T14:22:52;99698.75;;;-0.51;98.60
57900;BME280;60605;53.716;19.940;2022-11-20T14:27:58;99694.17;;;-0.53;98.99
57900;BME280;60605;53.716;19.940;2022-11-20T14:33:03;99685.02;;;-0.56;99.34
57900;BME280;60605;53.716;19.940;2022-11-20T14:38:11;99685.29;;;-0.57;99.79
57900;BME280;60605;53.716;19.940;2022-11-20T14:43:19;99679.98;;;-0.59;99.94
57900;BME280;60605;53.716;19.940;2022-11-20T14:48:29;99672.64;;;-0.59;100.00
57900;BME280;60605;53.716;19.940;2022-11-20T14:53:34;99676.98;;;-0.58;100.00
57900;BME280;60605;53.716;19.940;2022-11-20T14:58:37;99674.48;;;-0.58;100.00
57900;BME280;60605;53.716;19.940;2022-11-20T15:03:41;99668.41;;;-0.59;100.00
57900;BME280;60605;53.716;19.940;2022-11-20T15:08:50;99667.16;;;-0.58;100.00
57900;BME280;60605;53.716;19.940;2022-11-20T15:13:54;99663.30;;;-0.59;100.00
57900;BME280;60605;53.716;19.940;2022-11-20T15:18:58;99659.98;;;-0.59;100.00
57900;BME280;60605;53.716;19.940;2022-11-20T15:24:01;99655.02;;;-0.58;100.00
57900;BME280;60605;53.716;19.940;2022-11-20T15:29:12;99638.30;;;-0.57;100.00
57900;BME280;60605;53.716;19.940;2022-11-20T15:34:16;99639.85;;;-0.56;100.00
57900;BME280;60605;53.716;19.940;2022-11-20T15:39:20;99641.59;;;-0.53;100.00
57900;BME280;60605;53.716;19.940;2022-11-20T15:44:24;99637.61;;;-0.52;100.00
57900;BME280;60605;53.716;19.940;2022-11-20T15:49:27;99636.41;;;-0.50;100.00
57900;BME280;60605;53.716;19.940;2022-11-20T15:54:30;99633.46;;;-0.47;100.00
57900;BME280;60605;53.716;19.940;2022-11-20T15:59:34;99624.56;;;-0.48;100.00
57900;BME280;60605;53.716;19.940;2022-11-20T16:04:40;99622.64;;;-0.48;100.00
57900;BME280;60605;53.716;19.940;2022-11-20T16:09:43;99618.23;;;-0.48;100.00
57900;BME280;60605;53.716;19.940;2022-11-20T16:14:46;99620.95;;;-0.46;100.00
57900;BME280;60605;53.716;19.940;2022-11-20T16:20:15;99613.52;;;-0.46;100.00
57900;BME280;60605;53.716;19.940;2022-11-20T16:25:18;99613.05;;;-0.44;100.00
57900;BME280;60605;53.716;19.940;2022-11-20T16:30:23;99610.83;;;-0.42;100.00
57900;BME280;60605;53.716;19.940;2022-11-20T16:35:27;99605.98;;;-0.40;100.00
57900;BME280;60605;53.716;19.940;2022-11-20T16:40:31;99605.52;;;-0.38;100.00
57900;BME280;60605;53.716;19.940;2022-11-20T16:45:42;99605.57;;;-0.36;100.00
57900;BME280;60605;53.716;19.940;2022-11-20T16:50:51;99605.04;;;-0.36;100.00
57900;BME280;60605;53.716;19.940;2022-11-20T16:55:55;99607.41;;;-0.38;100.00
57900;BME280;60605;53.716;19.940;2022-11-20T17:01:05;99602.95;;;-0.39;100.00
57900;BME280;60605;53.716;19.940;2022-11-20T17:06:16;99601.65;;;-0.41;100.00
57900;BME280;60605;53.716;19.940;2022-11-20T17:11:21;99606.23;;;-0.44;100.00
57900;BME280;60605;53.716;19.940;2022-11-20T17:16:25;99611.06;;;-0.46;100.00
57900;BME280;60605;53.716;19.940;2022-11-20T17:21:30;99607.44;;;-0.47;100.00
57900;BME280;60605;53.716;19.940;2022-11-20T17:26:34;99601.10;;;-0.49;100.00
57900;BME280;60605;53.716;19.940;2022-11-20T17:31:39;99604.08;;;-0.51;100.00
57900;BME280;60605;53.716;19.940;2022-11-20T17:36:44;99608.05;;;-0.53;100.00
57900;BME280;60605;53.716;19.940;2022-11-20T17:41:48;99602.11;;;-0.56;100.00
57900;BME280;60605;53.716;19.940;2022-11-20T17:47:12;99598.83;;;-0.59;100.00
57900;BME280;60605;53.716;19.940;2022-11-20T17:52:16;99600.29;;;-0.63;100.00
57900;BME280;60605;53.716;19.940;2022-11-20T17:57:19;99598.89;;;-0.65;100.00
57900;BME280;60605;53.716;19.940;2022-11-20T18:02:42;99593.96;;;-0.68;100.00
57900;BME280;60605;53.716;19.940;2022-11-20T18:07:46;99591.33;;;-0.70;100.00
57900;BME280;60605;53.716;19.940;2022-11-20T18:12:49;99589.33;;;-0.72;100.00
57900;BME280;60605;53.716;19.940;2022-11-20T18:17:55;99588.01;;;-0.73;100.00
57900;BME280;60605;53.716;19.940;2022-11-20T18:22:58;99585.83;;;-0.75;100.00
57900;BME280;60605;53.716;19.940;2022-11-20T18:28:02;99582.25;;;-0.76;100.00
57900;BME280;60605;53.716;19.940;2022-11-20T18:33:06;99577.39;;;-0.77;100.00
57900;BME280;60605;53.716;19.940;2022-11-20T18:38:09;99580.35;;;-0.77;100.00
57900;BME280;60605;53.716;19.940;2022-11-20T18:43:13;99575.64;;;-0.77;100.00
57900;BME280;60605;53.716;19.940;2022-11-20T18:48:37;99576.04;;;-0.78;100.00
57900;BME280;60605;53.716;19.940;2022-11-20T18:53:42;99577.32;;;-0.78;100.00
57900;BME280;60605;53.716;19.940;2022-11-20T18:58:49;99569.29;;;-0.79;100.00
57900;BME280;60605;53.716;19.940;2022-11-20T19:03:53;99566.66;;;-0.79;100.00
57900;BME280;60605;53.716;19.940;2022-11-20T19:08:57;99565.80;;;-0.80;100.00
57900;BME280;60605;53.716;19.940;2022-11-20T19:14:01;99571.73;;;-0.79;100.00
57900;BME280;60605;53.716;19.940;2022-11-20T19:19:07;99570.49;;;-0.79;100.00
57900;BME280;60605;53.716;19.940;2022-11-20T19:24:12;99565.63;;;-0.79;100.00
57900;BME280;60605;53.716;19.940;2022-11-20T19:29:16;99566.71;;;-0.80;100.00
57900;BME280;60605;53.716;19.940;2022-11-20T19:34:19;99564.36;;;-0.81;100.00
57900;BME280;60605;53.716;19.940;2022-11-20T19:39:23;99559.91;;;-0.83;100.00
57900;BME280;60605;53.716;19.940;2022-11-20T19:44:26;99559.61;;;-0.84;100.00
57900;BME280;60605;53.716;19.940;2022-11-20T19:49:31;99556.20;;;-0.85;100.00
57900;BME280;60605;53.716;19.940;2022-11-20T19:54:35;99559.23;;;-0.86;100.00
57900;BME280;60605;53.716;19.940;2022-11-20T19:59:38;99553.85;;;-0.87;100.00
57900;BME280;60605;53.716;19.940;2022-11-20T20:04:42;99553.33;;;-0.87;100.00
57900;BME280;60605;53.716;19.940;2022-11-20T20:09:46;99553.32;;;-0.87;100.00
57900;BME280;60605;53.716;19.940;2022-11-20T20:14:49;99554.84;;;-0.86;100.00
57900;BME280;60605;53.716;19.940;2022-11-20T20:19:54;99556.23;;;-0.86;100.00
57900;BME280;60605;53.716;19.940;2022-11-20T20:24:58;99553.79;;;-0.86;100.00
57900;BME280;60605;53.716;19.940;2022-11-20T20:30:04;99555.92;;;-0.86;100.00
57900;BME280;60605;53.716;19.940;2022-11-20T20:35:08;99554.91;;;-0.87;100.00
57900;BME280;60605;53.716;19.940;2022-11-20T20:40:13;99559.83;;;-0.87;100.00
57900;BME280;60605;53.716;19.940;2022-11-20T20:45:17;99558.55;;;-0.87;100.00
57900;BME280;60605;53.716;19.940;2022-11-20T20:50:22;99560.13;;;-0.87;100.00
57900;BME280;60605;53.716;19.940;2022-11-20T20:55:26;99565.08;;;-0.87;100.00
57900;BME280;60605;53.716;19.940;2022-11-20T21:00:31;99564.14;;;-0.89;100.00
57900;BME280;60605;53.716;19.940;2022-11-20T21:05:34;99562.41;;;-0.89;100.00
57900;BME280;60605;53.716;19.940;2022-11-20T21:10:38;99565.63;;;-0.90;100.00
57900;BME280;60605;53.716;19.940;2022-11-20T21:15:42;99567.39;;;-0.90;100.00
57900;BME280;60605;53.716;19.940;2022-11-20T21:20:49;99569.35;;;-0.91;100.00
57900;BME280;60605;53.716;19.940;2022-11-20T21:26:10;99571.06;;;-0.93;100.00
57900;BME280;60605;53.716;19.940;2022-11-20T21:31:15;99565.27;;;-0.95;100.00
57900;BME280;60605;53.716;19.940;2022-11-20T21:36:21;99555.91;;;-0.97;100.00
57900;BME280;60605;53.716;19.940;2022-11-20T21:41:26;99552.31;;;-0.98;100.00
57900;BME280;60605;53.716;19.940;2022-11-20T21:46:31;99548.42;;;-1.00;100.00
57900;BME280;60605;53.716;19.940;2022-11-20T21:51:35;99540.33;;;-1.02;100.00
57900;BME280;60605;53.716;19.940;2022-11-20T21:56:38;99540.61;;;-1.04;100.00
57900;BME280;60605;53.716;19.940;2022-11-20T22:01:42;99538.37;;;-1.05;100.00
57900;BME280;60605;53.716;19.940;2022-11-20T22:06:45;99536.52;;;-1.06;100.00
57900;BME280;60605;53.716;19.940;2022-11-20T22:11:50;99536.73;;;-1.06;100.00
57900;BME280;60605;53.716;19.940;2022-11-20T22:16:54;99539.57;;;-1.07;100.00
57900;BME280;60605;53.716;19.940;2022-11-20T22:21:57;99537.90;;;-1.08;100.00
57900;BME280;60605;53.716;19.940;2022-11-20T22:27:00;99536.98;;;-1.13;100.00
57900;BME280;60605;53.716;19.940;2022-11-20T22:32:04;99534.35;;;-1.24;100.00
57900;BME280;60605;53.716;19.940;2022-11-20T22:37:07;99529.52;;;-1.33;100.00
57900;BME280;60605;53.716;19.940;2022-11-20T22:42:10;99527.04;;;-1.38;100.00
57900;BME280;60605;53.716;19.940;2022-11-20T22:47:13;99523.30;;;-1.43;100.00
57900;BME280;60605;53.716;19.940;2022-11-20T22:52:17;99515.33;;;-1.49;100.00
57900;BME280;60605;53.716;19.940;2022-11-20T22:57:20;99512.41;;;-1.58;100.00
57900;BME280;60605;53.716;19.940;2022-11-20T23:02:23;99511.59;;;-1.68;100.00
57900;BME280;60605;53.716;19.940;2022-11-20T23:07:27;99509.23;;;-1.78;100.00
57900;BME280;60605;53.716;19.940;2022-11-20T23:12:30;99511.85;;;-1.89;100.00
57900;BME280;60605;53.716;19.940;2022-11-20T23:17:33;99512.92;;;-2.01;100.00
57900;BME280;60605;53.716;19.940;2022-11-20T23:22:37;99514.94;;;-2.08;100.00
57900;BME280;60605;53.716;19.940;2022-11-20T23:27:40;99521.59;;;-2.11;100.00
57900;BME280;60605;53.716;19.940;2022-11-20T23:32:43;99516.92;;;-2.12;100.00
57900;BME280;60605;53.716;19.940;2022-11-20T23:37:47;99520.84;;;-2.10;100.00
57900;BME280;60605;53.716;19.940;2022-11-20T23:42:50;99522.36;;;-2.06;100.00
57900;BME280;60605;53.716;19.940;2022-11-20T23:48:13;99515.09;;;-2.02;100.00
57900;BME280;60605;53.716;19.940;2022-11-20T23:53:17;99513.77;;;-1.98;100.00
57900;BME280;60605;53.716;19.940;2022-11-20T23:58:24;99509.41;;;-1.95;100.00
